sensor_id;sensor_type;location;lat;lon;timestamp;P1;durP1;ratioP1;P2;durP2;ratioP2
16967;SDS011;8600;54.338;10.128;2022-10-03T00:01:08;17.35;;;2.38;;
16967;SDS011;8600;54.338;10.128;2022-10-03T00:03:56;25.45;;;2.80;;
16967;SDS011;8600;54.338;10.128;2022-10-03T00:06:39;32.25;;;2.90;;
16967;SDS011;8600;54.338;10.128;2022-10-03T00:09:16;19.48;;;2.50;;
16967;SDS011;8600;54.338;10.128;2022-10-03T00:12:02;28.45;;;2.30;;
16967;SDS011;8600;54.338;10.128;2022-10-03T00:14:40;26.08;;;2.60;;
16967;SDS011;8600;54.338;10.128;2022-10-03T00:17:13;20.30;;;2.37;;
16967;SDS011;8600;54.338;10.128;2022-10-03T00:19:46;24.65;;;2.70;;
16967;SDS011;8600;54.338;10.128;2022-10-03T00:22:25;23.88;;;2.72;;
16967;SDS011;8600;54.338;10.128;2022-10-03T00:25:14;28.95;;;2.80;;
16967;SDS011;8600;54.338;10.128;2022-10-03T00:27:54;23.95;;;2.63;;
16967;SDS011;8600;54.338;10.128;2022-10-03T00:30:45;22.85;;;2.65;;
16967;SDS011;8600;54.338;10.128;2022-10-03T00:33:22;30.25;;;2.97;;
16967;SDS011;8600;54.338;10.128;2022-10-03T00:36:00;27.58;;;2.95;;
16967;SDS011;8600;54.338;10.128;2022-10-03T00:38:46;27.10;;;3.00;;
16967;SDS011;8600;54.338;10.128;2022-10-03T00:41:54;28.52;;;2.90;;
16967;SDS011;8600;54.338;10.128;2022-10-03T00:48:01;28.88;;;3.15;;
16967;SDS011;8600;54.338;10.128;2022-10-03T00:50:50;30.45;;;2.85;;
16967;SDS011;8600;54.338;10.128;2022-10-03T00:56:28;24.08;;;2.47;;
16967;SDS011;8600;54.338;10.128;2022-10-03T00:59:13;28.65;;;2.60;;
16967;SDS011;8600;54.338;10.128;2022-10-03T01:01:53;26.38;;;2.90;;
16967;SDS011;8600;54.338;10.128;2022-10-03T01:04:25;27.52;;;3.50;;
16967;SDS011;8600;54.338;10.128;2022-10-03T01:07:11;30.50;;;2.78;;
16967;SDS011;8600;54.338;10.128;2022-10-03T01:09:59;34.90;;;3.30;;
16967;SDS011;8600;54.338;10.128;2022-10-03T01:12:45;29.13;;;3.08;;
16967;SDS011;8600;54.338;10.128;2022-10-03T01:15:25;32.08;;;3.40;;
16967;SDS011;8600;54.338;10.128;2022-10-03T01:18:01;25.15;;;2.95;;
16967;SDS011;8600;54.338;10.128;2022-10-03T01:20:40;33.63;;;3.10;;
16967;SDS011;8600;54.338;10.128;2022-10-03T01:26:17;34.83;;;3.30;;
16967;SDS011;8600;54.338;10.128;2022-10-03T01:28:57;32.88;;;3.28;;
16967;SDS011;8600;54.338;10.128;2022-10-03T01:31:58;29.30;;;2.88;;
16967;SDS011;8600;54.338;10.128;2022-10-03T01:34:30;33.40;;;2.90;;
16967;SDS011;8600;54.338;10.128;2022-10-03T01:37:07;26.95;;;2.85;;
16967;SDS011;8600;54.338;10.128;2022-10-03T01:39:41;40.65;;;3.40;;
16967;SDS011;8600;54.338;10.128;2022-10-03T01:42:16;30.65;;;3.10;;
16967;SDS011;8600;54.338;10.128;2022-10-03T01:44:59;38.38;;;3.45;;
16967;SDS011;8600;54.338;10.128;2022-10-03T01:47:38;21.50;;;2.53;;
16967;SDS011;8600;54.338;10.128;2022-10-03T01:50:17;36.38;;;3.47;;
16967;SDS011;8600;54.338;10.128;2022-10-03T01:52:51;36.17;;;2.78;;
16967;SDS011;8600;54.338;10.128;2022-10-03T01:55:27;31.20;;;3.40;;
16967;SDS011;8600;54.338;10.128;2022-10-03T01:58:02;30.23;;;3.30;;
16967;SDS011;8600;54.338;10.128;2022-10-03T02:00:39;29.17;;;3.10;;
16967;SDS011;8600;54.338;10.128;2022-10-03T02:03:13;26.45;;;3.05;;
16967;SDS011;8600;54.338;10.128;2022-10-03T02:05:47;33.33;;;3.35;;
16967;SDS011;8600;54.338;10.128;2022-10-03T02:10:57;33.38;;;3.08;;
16967;SDS011;8600;54.338;10.128;2022-10-03T02:13:29;26.48;;;2.70;;
16967;SDS011;8600;54.338;10.128;2022-10-03T02:16:09;26.23;;;2.92;;
16967;SDS011;8600;54.338;10.128;2022-10-03T02:18:42;30.92;;;2.78;;
16967;SDS011;8600;54.338;10.128;2022-10-03T02:21:13;34.15;;;3.03;;
16967;SDS011;8600;54.338;10.128;2022-10-03T02:23:44;22.60;;;2.42;;
16967;SDS011;8600;54.338;10.128;2022-10-03T02:26:27;27.25;;;2.60;;
16967;SDS011;8600;54.338;10.128;2022-10-03T02:29:30;25.42;;;3.03;;
16967;SDS011;8600;54.338;10.128;2022-10-03T02:38:51;33.55;;;3.20;;
16967;SDS011;8600;54.338;10.128;2022-10-03T02:41:35;28.92;;;2.92;;
16967;SDS011;8600;54.338;10.128;2022-10-03T02:44:34;26.13;;;2.42;;
16967;SDS011;8600;54.338;10.128;2022-10-03T02:50:43;24.67;;;2.75;;
16967;SDS011;8600;54.338;10.128;2022-10-03T02:53:51;26.30;;;2.63;;
16967;SDS011;8600;54.338;10.128;2022-10-03T02:59:56;32.38;;;3.33;;
16967;SDS011;8600;54.338;10.128;2022-10-03T03:02:52;27.08;;;2.80;;
16967;SDS011;8600;54.338;10.128;2022-10-03T03:09:01;37.55;;;3.08;;
16967;SDS011;8600;54.338;10.128;2022-10-03T03:15:02;28.05;;;3.00;;
16967;SDS011;8600;54.338;10.128;2022-10-03T03:18:03;30.75;;;2.70;;
16967;SDS011;8600;54.338;10.128;2022-10-03T03:20:43;25.00;;;2.90;;
16967;SDS011;8600;54.338;10.128;2022-10-03T03:23:35;26.88;;;3.20;;
16967;SDS011;8600;54.338;10.128;2022-10-03T03:29:16;28.40;;;3.03;;
16967;SDS011;8600;54.338;10.128;2022-10-03T03:31:50;33.55;;;3.00;;
16967;SDS011;8600;54.338;10.128;2022-10-03T03:34:28;27.40;;;2.83;;
16967;SDS011;8600;54.338;10.128;2022-10-03T03:37:03;26.85;;;2.63;;
16967;SDS011;8600;54.338;10.128;2022-10-03T03:39:42;33.40;;;3.03;;
16967;SDS011;8600;54.338;10.128;2022-10-03T03:42:30;29.15;;;2.97;;
16967;SDS011;8600;54.338;10.128;2022-10-03T03:45:12;28.65;;;2.97;;
16967;SDS011;8600;54.338;10.128;2022-10-03T03:48:02;30.33;;;3.55;;
16967;SDS011;8600;54.338;10.128;2022-10-03T03:50:44;31.45;;;3.28;;
16967;SDS011;8600;54.338;10.128;2022-10-03T03:53:22;31.10;;;3.33;;
16967;SDS011;8600;54.338;10.128;2022-10-03T03:56:12;34.85;;;3.50;;
16967;SDS011;8600;54.338;10.128;2022-10-03T03:59:05;29.63;;;3.88;;
16967;SDS011;8600;54.338;10.128;2022-10-03T04:01:44;38.60;;;3.70;;
16967;SDS011;8600;54.338;10.128;2022-10-03T04:04:34;22.90;;;2.58;;
16967;SDS011;8600;54.338;10.128;2022-10-03T04:07:14;31.27;;;3.15;;
16967;SDS011;8600;54.338;10.128;2022-10-03T04:09:57;25.10;;;3.17;;
16967;SDS011;8600;54.338;10.128;2022-10-03T04:12:39;35.20;;;3.70;;
16967;SDS011;8600;54.338;10.128;2022-10-03T04:15:22;36.95;;;3.25;;
16967;SDS011;8600;54.338;10.128;2022-10-03T04:18:17;30.27;;;3.42;;
16967;SDS011;8600;54.338;10.128;2022-10-03T04:21:16;35.13;;;3.30;;
16967;SDS011;8600;54.338;10.128;2022-10-03T04:23:55;36.03;;;3.30;;
16967;SDS011;8600;54.338;10.128;2022-10-03T04:26:46;34.70;;;2.92;;
16967;SDS011;8600;54.338;10.128;2022-10-03T04:29:43;40.20;;;3.53;;
16967;SDS011;8600;54.338;10.128;2022-10-03T04:32:30;29.95;;;2.92;;
16967;SDS011;8600;54.338;10.128;2022-10-03T04:35:16;36.20;;;3.38;;
16967;SDS011;8600;54.338;10.128;2022-10-03T04:37:55;35.85;;;3.80;;
16967;SDS011;8600;54.338;10.128;2022-10-03T04:40:37;31.02;;;3.28;;
16967;SDS011;8600;54.338;10.128;2022-10-03T04:43:14;32.05;;;3.38;;
16967;SDS011;8600;54.338;10.128;2022-10-03T04:45:56;33.72;;;3.53;;
16967;SDS011;8600;54.338;10.128;2022-10-03T04:48:42;38.83;;;3.35;;
16967;SDS011;8600;54.338;10.128;2022-10-03T04:51:17;33.45;;;3.47;;
16967;SDS011;8600;54.338;10.128;2022-10-03T04:59:11;35.95;;;3.22;;
16967;SDS011;8600;54.338;10.128;2022-10-03T05:02:01;43.72;;;3.67;;
16967;SDS011;8600;54.338;10.128;2022-10-03T05:04:41;29.80;;;3.60;;
16967;SDS011;8600;54.338;10.128;2022-10-03T05:07:15;37.05;;;3.65;;
16967;SDS011;8600;54.338;10.128;2022-10-03T05:09:51;34.00;;;3.13;;
16967;SDS011;8600;54.338;10.128;2022-10-03T05:12:24;35.35;;;3.45;;
16967;SDS011;8600;54.338;10.128;2022-10-03T05:15:05;37.80;;;3.22;;
16967;SDS011;8600;54.338;10.128;2022-10-03T05:17:45;41.17;;;3.22;;
16967;SDS011;8600;54.338;10.128;2022-10-03T05:20:27;34.00;;;3.45;;
16967;SDS011;8600;54.338;10.128;2022-10-03T05:23:11;44.92;;;3.88;;
16967;SDS011;8600;54.338;10.128;2022-10-03T05:25:49;38.92;;;3.90;;
16967;SDS011;8600;54.338;10.128;2022-10-03T05:28:24;39.40;;;3.60;;
16967;SDS011;8600;54.338;10.128;2022-10-03T05:31:05;31.98;;;3.08;;
16967;SDS011;8600;54.338;10.128;2022-10-03T05:33:42;38.75;;;3.80;;
16967;SDS011;8600;54.338;10.128;2022-10-03T05:36:19;35.88;;;3.75;;
16967;SDS011;8600;54.338;10.128;2022-10-03T05:44:18;39.53;;;4.35;;
16967;SDS011;8600;54.338;10.128;2022-10-03T05:46:57;36.35;;;3.75;;
16967;SDS011;8600;54.338;10.128;2022-10-03T05:55:12;35.30;;;3.67;;
16967;SDS011;8600;54.338;10.128;2022-10-03T05:58:04;40.50;;;3.75;;
16967;SDS011;8600;54.338;10.128;2022-10-03T06:00:51;40.85;;;4.07;;
16967;SDS011;8600;54.338;10.128;2022-10-03T06:03:50;38.92;;;3.53;;
16967;SDS011;8600;54.338;10.128;2022-10-03T06:06:28;39.80;;;4.70;;
16967;SDS011;8600;54.338;10.128;2022-10-03T06:09:08;38.30;;;3.35;;
16967;SDS011;8600;54.338;10.128;2022-10-03T06:12:04;39.03;;;3.70;;
16967;SDS011;8600;54.338;10.128;2022-10-03T06:14:41;33.67;;;3.58;;
16967;SDS011;8600;54.338;10.128;2022-10-03T06:17:59;31.48;;;3.55;;
16967;SDS011;8600;54.338;10.128;2022-10-03T06:20:56;40.10;;;3.72;;
16967;SDS011;8600;54.338;10.128;2022-10-03T06:24:12;34.85;;;3.55;;
16967;SDS011;8600;54.338;10.128;2022-10-03T06:27:14;35.83;;;3.40;;
16967;SDS011;8600;54.338;10.128;2022-10-03T06:30:02;37.60;;;3.92;;
16967;SDS011;8600;54.338;10.128;2022-10-03T06:42:08;38.00;;;3.60;;
16967;SDS011;8600;54.338;10.128;2022-10-03T06:48:10;26.13;;;3.20;;
16967;SDS011;8600;54.338;10.128;2022-10-03T06:50:51;30.13;;;3.45;;
16967;SDS011;8600;54.338;10.128;2022-10-03T07:02:26;23.13;;;2.95;;
16967;SDS011;8600;54.338;10.128;2022-10-03T07:05:15;24.45;;;3.08;;
16967;SDS011;8600;54.338;10.128;2022-10-03T07:08:21;21.45;;;2.60;;
16967;SDS011;8600;54.338;10.128;2022-10-03T07:11:14;24.23;;;2.88;;
16967;SDS011;8600;54.338;10.128;2022-10-03T07:17:18;25.58;;;2.60;;
16967;SDS011;8600;54.338;10.128;2022-10-03T07:20:09;22.67;;;3.33;;
16967;SDS011;8600;54.338;10.128;2022-10-03T07:23:03;21.40;;;2.47;;
16967;SDS011;8600;54.338;10.128;2022-10-03T07:25:58;23.17;;;2.88;;
16967;SDS011;8600;54.338;10.128;2022-10-03T07:29:08;22.23;;;2.60;;
16967;SDS011;8600;54.338;10.128;2022-10-03T07:31:58;20.88;;;2.50;;
16967;SDS011;8600;54.338;10.128;2022-10-03T07:34:52;22.30;;;2.53;;
16967;SDS011;8600;54.338;10.128;2022-10-03T07:37:56;18.52;;;2.97;;
16967;SDS011;8600;54.338;10.128;2022-10-03T07:41:15;18.95;;;2.40;;
16967;SDS011;8600;54.338;10.128;2022-10-03T07:44:06;27.40;;;2.60;;
16967;SDS011;8600;54.338;10.128;2022-10-03T07:49:50;25.65;;;2.97;;
16967;SDS011;8600;54.338;10.128;2022-10-03T07:55:37;21.60;;;2.55;;
16967;SDS011;8600;54.338;10.128;2022-10-03T07:58:25;25.73;;;3.05;;
16967;SDS011;8600;54.338;10.128;2022-10-03T08:01:13;25.60;;;3.05;;
16967;SDS011;8600;54.338;10.128;2022-10-03T08:10:26;23.17;;;3.05;;
16967;SDS011;8600;54.338;10.128;2022-10-03T08:13:16;18.27;;;2.78;;
16967;SDS011;8600;54.338;10.128;2022-10-03T08:16:04;24.67;;;2.88;;
16967;SDS011;8600;54.338;10.128;2022-10-03T08:19:00;22.92;;;2.60;;
16967;SDS011;8600;54.338;10.128;2022-10-03T08:21:53;28.50;;;3.25;;
16967;SDS011;8600;54.338;10.128;2022-10-03T08:24:36;24.40;;;2.90;;
16967;SDS011;8600;54.338;10.128;2022-10-03T08:27:24;18.60;;;2.55;;
16967;SDS011;8600;54.338;10.128;2022-10-03T08:30:07;23.10;;;2.70;;
16967;SDS011;8600;54.338;10.128;2022-10-03T08:36:27;22.13;;;3.10;;
16967;SDS011;8600;54.338;10.128;2022-10-03T08:39:10;23.23;;;2.40;;
16967;SDS011;8600;54.338;10.128;2022-10-03T08:41:48;20.55;;;2.60;;
16967;SDS011;8600;54.338;10.128;2022-10-03T08:44:48;18.67;;;2.85;;
16967;SDS011;8600;54.338;10.128;2022-10-03T08:47:43;20.77;;;2.47;;
16967;SDS011;8600;54.338;10.128;2022-10-03T08:50:42;19.60;;;2.72;;
16967;SDS011;8600;54.338;10.128;2022-10-03T08:56:40;24.83;;;3.35;;
16967;SDS011;8600;54.338;10.128;2022-10-03T09:02:25;19.35;;;2.92;;
16967;SDS011;8600;54.338;10.128;2022-10-03T09:05:28;18.15;;;2.63;;
16967;SDS011;8600;54.338;10.128;2022-10-03T09:11:12;21.42;;;2.53;;
16967;SDS011;8600;54.338;10.128;2022-10-03T09:14:07;15.93;;;2.65;;
16967;SDS011;8600;54.338;10.128;2022-10-03T09:17:13;17.85;;;2.33;;
16967;SDS011;8600;54.338;10.128;2022-10-03T09:20:05;19.05;;;2.47;;
16967;SDS011;8600;54.338;10.128;2022-10-03T09:22:52;16.52;;;2.35;;
16967;SDS011;8600;54.338;10.128;2022-10-03T09:25:54;16.08;;;2.63;;
16967;SDS011;8600;54.338;10.128;2022-10-03T09:28:41;21.55;;;2.63;;
16967;SDS011;8600;54.338;10.128;2022-10-03T09:35:04;15.20;;;2.08;;
16967;SDS011;8600;54.338;10.128;2022-10-03T09:41:10;15.10;;;2.13;;
16967;SDS011;8600;54.338;10.128;2022-10-03T09:44:11;13.05;;;2.30;;
16967;SDS011;8600;54.338;10.128;2022-10-03T09:56:52;11.55;;;1.75;;
16967;SDS011;8600;54.338;10.128;2022-10-03T09:59:57;19.02;;;2.20;;
16967;SDS011;8600;54.338;10.128;2022-10-03T10:06:11;15.88;;;2.45;;
16967;SDS011;8600;54.338;10.128;2022-10-03T10:09:03;14.35;;;2.05;;
16967;SDS011;8600;54.338;10.128;2022-10-03T10:12:12;12.82;;;1.98;;
16967;SDS011;8600;54.338;10.128;2022-10-03T10:18:10;13.80;;;2.30;;
16967;SDS011;8600;54.338;10.128;2022-10-03T10:24:43;13.52;;;1.90;;
16967;SDS011;8600;54.338;10.128;2022-10-03T10:27:43;17.98;;;2.05;;
16967;SDS011;8600;54.338;10.128;2022-10-03T10:30:42;12.52;;;1.80;;
16967;SDS011;8600;54.338;10.128;2022-10-03T10:33:37;12.35;;;2.00;;
16967;SDS011;8600;54.338;10.128;2022-10-03T10:39:47;12.20;;;2.15;;
16967;SDS011;8600;54.338;10.128;2022-10-03T10:45:43;15.90;;;2.10;;
16967;SDS011;8600;54.338;10.128;2022-10-03T10:51:57;13.85;;;1.85;;
16967;SDS011;8600;54.338;10.128;2022-10-03T10:55:24;14.57;;;2.15;;
16967;SDS011;8600;54.338;10.128;2022-10-03T11:01:22;13.18;;;1.92;;
16967;SDS011;8600;54.338;10.128;2022-10-03T11:04:17;12.10;;;1.70;;
16967;SDS011;8600;54.338;10.128;2022-10-03T11:07:30;15.30;;;2.05;;
16967;SDS011;8600;54.338;10.128;2022-10-03T11:10:34;13.55;;;2.47;;
16967;SDS011;8600;54.338;10.128;2022-10-03T11:19:45;13.57;;;1.88;;
16967;SDS011;8600;54.338;10.128;2022-10-03T11:22:44;11.38;;;1.60;;
16967;SDS011;8600;54.338;10.128;2022-10-03T11:28:51;14.10;;;2.08;;
16967;SDS011;8600;54.338;10.128;2022-10-03T11:35:25;13.70;;;2.08;;
16967;SDS011;8600;54.338;10.128;2022-10-03T11:38:11;11.23;;;1.83;;
16967;SDS011;8600;54.338;10.128;2022-10-03T11:40:48;12.55;;;1.67;;
16967;SDS011;8600;54.338;10.128;2022-10-03T11:43:37;10.35;;;1.60;;
16967;SDS011;8600;54.338;10.128;2022-10-03T11:46:32;11.38;;;1.55;;
16967;SDS011;8600;54.338;10.128;2022-10-03T11:49:24;13.00;;;1.63;;
16967;SDS011;8600;54.338;10.128;2022-10-03T11:52:12;14.98;;;1.70;;
16967;SDS011;8600;54.338;10.128;2022-10-03T11:54:51;12.55;;;1.80;;
16967;SDS011;8600;54.338;10.128;2022-10-03T11:57:29;7.38;;;1.40;;
16967;SDS011;8600;54.338;10.128;2022-10-03T12:00:02;15.52;;;2.08;;
16967;SDS011;8600;54.338;10.128;2022-10-03T12:02:53;12.07;;;1.77;;
16967;SDS011;8600;54.338;10.128;2022-10-03T12:05:41;9.02;;;1.58;;
16967;SDS011;8600;54.338;10.128;2022-10-03T12:08:18;8.05;;;1.38;;
16967;SDS011;8600;54.338;10.128;2022-10-03T12:11:10;8.88;;;1.50;;
16967;SDS011;8600;54.338;10.128;2022-10-03T12:13:57;7.38;;;1.20;;
16967;SDS011;8600;54.338;10.128;2022-10-03T12:19:36;12.43;;;1.75;;
16967;SDS011;8600;54.338;10.128;2022-10-03T12:22:15;8.07;;;1.30;;
16967;SDS011;8600;54.338;10.128;2022-10-03T12:24:52;9.48;;;1.50;;
16967;SDS011;8600;54.338;10.128;2022-10-03T12:27:28;6.22;;;1.33;;
16967;SDS011;8600;54.338;10.128;2022-10-03T12:30:01;9.98;;;1.40;;
16967;SDS011;8600;54.338;10.128;2022-10-03T12:32:41;10.18;;;1.60;;
16967;SDS011;8600;54.338;10.128;2022-10-03T12:35:21;9.55;;;1.42;;
16967;SDS011;8600;54.338;10.128;2022-10-03T12:38:01;9.15;;;1.50;;
16967;SDS011;8600;54.338;10.128;2022-10-03T12:40:39;13.35;;;1.90;;
16967;SDS011;8600;54.338;10.128;2022-10-03T12:43:15;9.65;;;1.35;;
16967;SDS011;8600;54.338;10.128;2022-10-03T12:45:56;8.57;;;1.42;;
16967;SDS011;8600;54.338;10.128;2022-10-03T12:48:38;12.77;;;1.70;;
16967;SDS011;8600;54.338;10.128;2022-10-03T12:51:17;11.45;;;1.70;;
16967;SDS011;8600;54.338;10.128;2022-10-03T12:53:56;10.68;;;1.67;;
16967;SDS011;8600;54.338;10.128;2022-10-03T12:56:34;10.70;;;1.73;;
16967;SDS011;8600;54.338;10.128;2022-10-03T12:59:12;8.18;;;1.50;;
16967;SDS011;8600;54.338;10.128;2022-10-03T13:01:59;15.00;;;1.80;;
16967;SDS011;8600;54.338;10.128;2022-10-03T13:07:18;15.10;;;1.85;;
16967;SDS011;8600;54.338;10.128;2022-10-03T13:09:55;10.23;;;1.95;;
16967;SDS011;8600;54.338;10.128;2022-10-03T13:12:34;12.77;;;1.65;;
16967;SDS011;8600;54.338;10.128;2022-10-03T13:21:21;12.60;;;1.63;;
16967;SDS011;8600;54.338;10.128;2022-10-03T13:23:55;9.95;;;1.60;;
16967;SDS011;8600;54.338;10.128;2022-10-03T13:26:25;14.18;;;1.70;;
16967;SDS011;8600;54.338;10.128;2022-10-03T13:29:08;10.00;;;1.30;;
16967;SDS011;8600;54.338;10.128;2022-10-03T13:31:55;11.98;;;1.70;;
16967;SDS011;8600;54.338;10.128;2022-10-03T13:34:31;8.88;;;1.50;;
16967;SDS011;8600;54.338;10.128;2022-10-03T13:37:05;9.32;;;1.25;;
16967;SDS011;8600;54.338;10.128;2022-10-03T13:39:42;11.05;;;1.88;;
16967;SDS011;8600;54.338;10.128;2022-10-03T13:42:13;11.45;;;1.60;;
16967;SDS011;8600;54.338;10.128;2022-10-03T13:44:47;12.63;;;1.52;;
16967;SDS011;8600;54.338;10.128;2022-10-03T13:47:40;15.15;;;1.70;;
16967;SDS011;8600;54.338;10.128;2022-10-03T13:50:12;8.68;;;1.58;;
16967;SDS011;8600;54.338;10.128;2022-10-03T13:52:45;11.13;;;1.60;;
16967;SDS011;8600;54.338;10.128;2022-10-03T13:55:19;12.05;;;1.63;;
16967;SDS011;8600;54.338;10.128;2022-10-03T14:01:06;14.02;;;1.75;;
16967;SDS011;8600;54.338;10.128;2022-10-03T14:03:54;13.48;;;1.55;;
16967;SDS011;8600;54.338;10.128;2022-10-03T14:06:37;11.48;;;1.60;;
16967;SDS011;8600;54.338;10.128;2022-10-03T14:09:23;12.60;;;1.80;;
16967;SDS011;8600;54.338;10.128;2022-10-03T14:11:59;10.38;;;1.77;;
16967;SDS011;8600;54.338;10.128;2022-10-03T14:14:41;11.40;;;1.58;;
16967;SDS011;8600;54.338;10.128;2022-10-03T14:17:18;12.85;;;1.75;;
16967;SDS011;8600;54.338;10.128;2022-10-03T14:20:00;11.00;;;1.48;;
16967;SDS011;8600;54.338;10.128;2022-10-03T14:22:39;10.68;;;1.70;;
16967;SDS011;8600;54.338;10.128;2022-10-03T14:25:20;9.02;;;1.48;;
16967;SDS011;8600;54.338;10.128;2022-10-03T14:27:51;13.48;;;2.00;;
16967;SDS011;8600;54.338;10.128;2022-10-03T14:30:21;17.35;;;1.90;;
16967;SDS011;8600;54.338;10.128;2022-10-03T14:32:53;14.55;;;1.55;;
16967;SDS011;8600;54.338;10.128;2022-10-03T14:35:38;14.13;;;1.80;;
16967;SDS011;8600;54.338;10.128;2022-10-03T14:38:15;12.10;;;1.60;;
16967;SDS011;8600;54.338;10.128;2022-10-03T14:41:16;13.23;;;1.90;;
16967;SDS011;8600;54.338;10.128;2022-10-03T14:43:46;18.02;;;2.03;;
16967;SDS011;8600;54.338;10.128;2022-10-03T14:46:17;14.93;;;2.25;;
16967;SDS011;8600;54.338;10.128;2022-10-03T14:48:46;10.02;;;1.67;;
16967;SDS011;8600;54.338;10.128;2022-10-03T14:51:18;15.35;;;1.75;;
16967;SDS011;8600;54.338;10.128;2022-10-03T14:53:50;10.98;;;1.77;;
16967;SDS011;8600;54.338;10.128;2022-10-03T14:56:22;9.75;;;1.50;;
16967;SDS011;8600;54.338;10.128;2022-10-03T14:58:50;13.07;;;2.17;;
16967;SDS011;8600;54.338;10.128;2022-10-03T15:01:20;13.48;;;1.90;;
16967;SDS011;8600;54.338;10.128;2022-10-03T15:03:53;13.13;;;1.83;;
16967;SDS011;8600;54.338;10.128;2022-10-03T15:06:30;14.07;;;2.13;;
16967;SDS011;8600;54.338;10.128;2022-10-03T15:09:15;13.80;;;2.15;;
16967;SDS011;8600;54.338;10.128;2022-10-03T15:11:47;9.73;;;1.50;;
16967;SDS011;8600;54.338;10.128;2022-10-03T15:14:17;12.50;;;1.70;;
16967;SDS011;8600;54.338;10.128;2022-10-03T15:16:48;12.82;;;2.05;;
16967;SDS011;8600;54.338;10.128;2022-10-03T15:19:19;12.48;;;1.88;;
16967;SDS011;8600;54.338;10.128;2022-10-03T15:21:50;10.55;;;1.80;;
16967;SDS011;8600;54.338;10.128;2022-10-03T15:24:19;15.55;;;2.33;;
16967;SDS011;8600;54.338;10.128;2022-10-03T15:26:50;14.27;;;2.20;;
16967;SDS011;8600;54.338;10.128;2022-10-03T15:29:23;13.60;;;1.98;;
16967;SDS011;8600;54.338;10.128;2022-10-03T15:31:51;13.50;;;1.92;;
16967;SDS011;8600;54.338;10.128;2022-10-03T15:34:22;10.38;;;1.65;;
16967;SDS011;8600;54.338;10.128;2022-10-03T15:36:54;15.23;;;2.25;;
16967;SDS011;8600;54.338;10.128;2022-10-03T15:39:27;14.35;;;2.30;;
16967;SDS011;8600;54.338;10.128;2022-10-03T15:42:01;11.05;;;2.00;;
16967;SDS011;8600;54.338;10.128;2022-10-03T15:44:47;13.25;;;2.20;;
16967;SDS011;8600;54.338;10.128;2022-10-03T15:47:18;13.35;;;1.70;;
16967;SDS011;8600;54.338;10.128;2022-10-03T15:49:48;14.57;;;2.20;;
16967;SDS011;8600;54.338;10.128;2022-10-03T15:52:20;15.18;;;2.33;;
16967;SDS011;8600;54.338;10.128;2022-10-03T15:54:52;18.58;;;2.30;;
16967;SDS011;8600;54.338;10.128;2022-10-03T15:57:25;11.00;;;1.98;;
16967;SDS011;8600;54.338;10.128;2022-10-03T15:59:55;13.50;;;2.03;;
16967;SDS011;8600;54.338;10.128;2022-10-03T16:02:25;11.77;;;2.15;;
16967;SDS011;8600;54.338;10.128;2022-10-03T16:04:56;14.13;;;2.08;;
16967;SDS011;8600;54.338;10.128;2022-10-03T16:07:27;15.73;;;2.20;;
16967;SDS011;8600;54.338;10.128;2022-10-03T16:10:06;16.77;;;2.38;;
16967;SDS011;8600;54.338;10.128;2022-10-03T16:12:49;14.18;;;2.17;;
16967;SDS011;8600;54.338;10.128;2022-10-03T16:15:24;13.63;;;2.08;;
16967;SDS011;8600;54.338;10.128;2022-10-03T16:18:03;17.00;;;2.17;;
16967;SDS011;8600;54.338;10.128;2022-10-03T16:20:36;15.93;;;1.80;;
16967;SDS011;8600;54.338;10.128;2022-10-03T16:23:08;13.95;;;1.80;;
16967;SDS011;8600;54.338;10.128;2022-10-03T16:25:43;13.27;;;1.83;;
16967;SDS011;8600;54.338;10.128;2022-10-03T16:28:17;17.13;;;2.40;;
16967;SDS011;8600;54.338;10.128;2022-10-03T16:30:49;17.23;;;2.38;;
16967;SDS011;8600;54.338;10.128;2022-10-03T16:33:22;16.85;;;2.17;;
16967;SDS011;8600;54.338;10.128;2022-10-03T16:35:53;15.88;;;2.28;;
16967;SDS011;8600;54.338;10.128;2022-10-03T16:38:23;20.52;;;2.50;;
16967;SDS011;8600;54.338;10.128;2022-10-03T16:40:54;19.25;;;2.53;;
16967;SDS011;8600;54.338;10.128;2022-10-03T16:43:24;16.60;;;2.30;;
16967;SDS011;8600;54.338;10.128;2022-10-03T16:45:54;15.50;;;2.08;;
16967;SDS011;8600;54.338;10.128;2022-10-03T16:48:22;19.05;;;2.63;;
16967;SDS011;8600;54.338;10.128;2022-10-03T16:51:14;18.88;;;2.30;;
16967;SDS011;8600;54.338;10.128;2022-10-03T16:53:44;18.08;;;2.33;;
16967;SDS011;8600;54.338;10.128;2022-10-03T16:56:15;17.02;;;2.38;;
16967;SDS011;8600;54.338;10.128;2022-10-03T16:58:48;16.13;;;2.55;;
16967;SDS011;8600;54.338;10.128;2022-10-03T17:01:21;18.90;;;3.10;;
16967;SDS011;8600;54.338;10.128;2022-10-03T17:03:56;19.60;;;2.80;;
16967;SDS011;8600;54.338;10.128;2022-10-03T17:06:37;17.92;;;2.80;;
16967;SDS011;8600;54.338;10.128;2022-10-03T17:09:05;17.83;;;2.60;;
16967;SDS011;8600;54.338;10.128;2022-10-03T17:11:41;20.27;;;3.05;;
16967;SDS011;8600;54.338;10.128;2022-10-03T17:14:18;17.35;;;3.20;;
16967;SDS011;8600;54.338;10.128;2022-10-03T17:16:47;17.70;;;2.30;;
16967;SDS011;8600;54.338;10.128;2022-10-03T17:19:20;21.60;;;2.95;;
16967;SDS011;8600;54.338;10.128;2022-10-03T17:21:56;18.35;;;2.53;;
16967;SDS011;8600;54.338;10.128;2022-10-03T17:24:33;15.88;;;2.38;;
16967;SDS011;8600;54.338;10.128;2022-10-03T17:27:06;15.80;;;2.40;;
16967;SDS011;8600;54.338;10.128;2022-10-03T17:29:43;18.60;;;2.60;;
16967;SDS011;8600;54.338;10.128;2022-10-03T17:32:16;17.55;;;2.38;;
16967;SDS011;8600;54.338;10.128;2022-10-03T17:34:46;16.13;;;2.55;;
16967;SDS011;8600;54.338;10.128;2022-10-03T17:37:30;17.67;;;2.78;;
16967;SDS011;8600;54.338;10.128;2022-10-03T17:40:28;18.15;;;2.38;;
16967;SDS011;8600;54.338;10.128;2022-10-03T17:43:20;18.48;;;2.70;;
16967;SDS011;8600;54.338;10.128;2022-10-03T17:46:00;19.02;;;2.58;;
16967;SDS011;8600;54.338;10.128;2022-10-03T17:48:33;17.48;;;2.50;;
16967;SDS011;8600;54.338;10.128;2022-10-03T17:53:57;17.70;;;2.50;;
16967;SDS011;8600;54.338;10.128;2022-10-03T17:56:27;19.73;;;2.58;;
16967;SDS011;8600;54.338;10.128;2022-10-03T17:58:57;22.92;;;2.88;;
16967;SDS011;8600;54.338;10.128;2022-10-03T18:01:29;15.23;;;2.17;;
16967;SDS011;8600;54.338;10.128;2022-10-03T18:04:01;15.48;;;2.47;;
16967;SDS011;8600;54.338;10.128;2022-10-03T18:06:36;21.35;;;2.83;;
16967;SDS011;8600;54.338;10.128;2022-10-03T18:09:09;26.13;;;3.22;;
16967;SDS011;8600;54.338;10.128;2022-10-03T18:11:50;22.77;;;2.83;;
16967;SDS011;8600;54.338;10.128;2022-10-03T18:14:26;18.00;;;2.75;;
16967;SDS011;8600;54.338;10.128;2022-10-03T18:17:04;24.55;;;2.60;;
16967;SDS011;8600;54.338;10.128;2022-10-03T18:19:48;25.67;;;3.05;;
16967;SDS011;8600;54.338;10.128;2022-10-03T18:22:22;19.83;;;2.80;;
16967;SDS011;8600;54.338;10.128;2022-10-03T18:24:56;25.60;;;2.90;;
16967;SDS011;8600;54.338;10.128;2022-10-03T18:27:58;25.25;;;3.10;;
16967;SDS011;8600;54.338;10.128;2022-10-03T18:30:40;19.70;;;2.63;;
16967;SDS011;8600;54.338;10.128;2022-10-03T18:33:13;19.20;;;2.72;;
16967;SDS011;8600;54.338;10.128;2022-10-03T18:35:43;19.85;;;2.50;;
16967;SDS011;8600;54.338;10.128;2022-10-03T18:38:13;22.67;;;3.03;;
16967;SDS011;8600;54.338;10.128;2022-10-03T18:40:48;25.35;;;3.00;;
16967;SDS011;8600;54.338;10.128;2022-10-03T18:43:26;25.35;;;3.28;;
16967;SDS011;8600;54.338;10.128;2022-10-03T18:48:51;21.67;;;2.97;;
16967;SDS011;8600;54.338;10.128;2022-10-03T18:51:29;25.95;;;3.60;;
16967;SDS011;8600;54.338;10.128;2022-10-03T18:53:58;29.48;;;3.53;;
16967;SDS011;8600;54.338;10.128;2022-10-03T18:56:29;23.00;;;2.78;;
16967;SDS011;8600;54.338;10.128;2022-10-03T18:59:06;26.10;;;3.60;;